GABSGLRB

Guest
Details From GABS - Bamako Senou
To GLRB - MONROVIA ROBERTS INTL
Flight Number -
Tags generated
Created
Modified
Stats Distance 404 nm / 749 km
Max Altitude 34,000 ft / 10,363 m
Waypoints 6
Social Downloads 0
Likes 0
Share VATSIM

Download

Looking for another format? Having issues loading an existing format? Contact us
Advertisement - Login to hide

Notes

Basic altitude profile: - Ascent Rate: 2500ft/min - Ascent Speed: 250kts - Cruise Altitude: 35000ft - Cruise Speed: 420kts - Descent Rate: 1500ft/min - Descent Speed: 250kts Options: - Use NATs: yes - Use PACOTS: yes - Use low airways: yes - Use high airways: yes

Route

GABS MOPAL UG852 PONKA GLRB

ID Type Via Altitude Latitude Longitude Leg Dist Tot Dist Heading (true) Name
O GABS APT - 0 ft / 0 m 12.53354˚ -7.94994˚ - 0 nm - Bamako Senou
MOPAL FIX - 28,300 ft / 8,626 m 11.29639˚ -8.41972˚ 79 nm 79 nm 200° / 200° -
KIMPO FIX UG852 (AWY-HI) 34,000 ft / 10,363 m 10.28316˚ -8.79977˚ 64 nm 144 nm 200° / 200° -
NANAN FIX UG852 (AWY-HI) 34,000 ft / 10,363 m 9.05000˚ -9.28333˚ 79 nm 223 nm 201° / 201° -
PONKA FIX UG852 (AWY-HI) 24,000 ft / 7,315 m 7.86672˚ -9.73311˚ 75 nm 299 nm 201° / 201° -
O GLRB APT - 0 ft / 0 m 6.23379˚ -10.36231˚ 104 nm 404 nm 201° / 201° MONROVIA ROBERTS INTL

Altitude Profile

Advertisement - Login to hide

Weather


0- 5 10 15 20 25 30 35+ Temperature / ° C

Clouds and Precipitation
Forecast for 2018-05-22 12:00 UTC. Updated an hour ago

Ground ~20,000 ft ~40,000 ft Winds

GABS

Details ICAO GABS (BKO)
Name Bamako Senou
Region Mali
Timezone Africa/Bamako (UTC+0.0)
Stats Elevation 1,246 ft / 380 m (AMSL)
Location 12.533544° -7.949943°
Runways 1
Magnetic Variation 4.117° W

METAR

GABS 221030Z 22013KT CAVOK 33/19 Q1012 NOSIG

Decode

TAF

TAF GABS 220500Z 2206/2312 22008KT 9999 FEW026 PROB40 TEMPO 2216/2224 08015G30KT 3000 BLDU TSRA BKN026 SCT030CB PROB40 TEMPO 2302/2308 08015G35KT 2000 BLDU TSRA BKN026 SCT030CB

Decode

Departure Runways

ID Width Length Bearing (true) Bearing (mag) Surface Threshold Offset Overrun Length
06 148 ft / 45 m 8,888 ft / 2,709 m 56.51° 60.63° Asphalt 0 ft / 0 m 327 ft / 100 m
24 148 ft / 45 m 8,888 ft / 2,709 m 236.51° 240.63° Asphalt 0 ft / 0 m 327 ft / 100 m

GLRB

Details ICAO GLRB (ROB)
Name MONROVIA ROBERTS INTL
Region Liberia
Timezone Africa/Monrovia (UTC+0.0)
Stats Elevation 31 ft / 9 m (AMSL)
Location 6.233790° -10.362312°
Runways 1
Magnetic Variation 6.656° W

METAR

GLRB 221030Z 26004KT 9999 BKN018 31/26 Q1012 RMK NOSIG

Decode

TAF

TAF TAF GLRB 220400Z 2206/2312 22012KT 9999 BKN018 TEMPO 2208/2212 03006KT 9000 TEMPO 2214/2218 21010KT 8000 SHRA/TSRA BKN017 FEW025CB

Decode

Destination Runways

ID Width Length Bearing (true) Bearing (mag) Surface Threshold Offset Overrun Length
04 150 ft / 46 m 11,029 ft / 3,362 m 30.94° 37.60° Asphalt 0 ft / 0 m 0 ft / 0 m
22 150 ft / 46 m 11,029 ft / 3,362 m 210.94° 217.60° Asphalt 1,200 ft / 366 m 0 ft / 0 m

Popular Alternatives